sensor_id;sensor_type;location;lat;lon;timestamp;P1;durP1;ratioP1;P2;durP2;ratioP2
79638;SDS011;69114;49.108;8.280;2023-05-29T00:01:20;12.82;;;5.25;;
79638;SDS011;69114;49.108;8.280;2023-05-29T00:03:46;8.00;;;4.78;;
79638;SDS011;69114;49.108;8.280;2023-05-29T00:06:11;8.50;;;4.95;;
79638;SDS011;69114;49.108;8.280;2023-05-29T00:08:38;10.02;;;5.00;;
79638;SDS011;69114;49.108;8.280;2023-05-29T00:11:04;8.68;;;5.00;;
79638;SDS011;69114;49.108;8.280;2023-05-29T00:13:29;8.52;;;5.20;;
79638;SDS011;69114;49.108;8.280;2023-05-29T00:15:54;9.65;;;5.18;;
79638;SDS011;69114;49.108;8.280;2023-05-29T00:18:21;8.95;;;5.47;;
79638;SDS011;69114;49.108;8.280;2023-05-29T00:20:46;9.68;;;5.15;;
79638;SDS011;69114;49.108;8.280;2023-05-29T00:23:12;7.40;;;4.55;;
79638;SDS011;69114;49.108;8.280;2023-05-29T00:25:37;7.18;;;4.55;;
79638;SDS011;69114;49.108;8.280;2023-05-29T00:28:05;8.90;;;4.82;;
79638;SDS011;69114;49.108;8.280;2023-05-29T00:30:32;7.88;;;4.38;;
79638;SDS011;69114;49.108;8.280;2023-05-29T00:32:57;5.88;;;4.40;;
79638;SDS011;69114;49.108;8.280;2023-05-29T00:35:22;7.78;;;4.63;;
79638;SDS011;69114;49.108;8.280;2023-05-29T00:37:48;8.35;;;4.38;;
79638;SDS011;69114;49.108;8.280;2023-05-29T00:40:13;8.27;;;4.60;;
79638;SDS011;69114;49.108;8.280;2023-05-29T00:42:39;8.85;;;4.43;;
79638;SDS011;69114;49.108;8.280;2023-05-29T00:45:04;7.32;;;4.70;;
79638;SDS011;69114;49.108;8.280;2023-05-29T00:47:31;8.07;;;4.82;;
79638;SDS011;69114;49.108;8.280;2023-05-29T00:49:56;9.80;;;5.13;;
79638;SDS011;69114;49.108;8.280;2023-05-29T00:52:22;7.57;;;5.18;;
79638;SDS011;69114;49.108;8.280;2023-05-29T00:54:50;9.73;;;4.97;;
79638;SDS011;69114;49.108;8.280;2023-05-29T00:57:16;7.03;;;4.68;;
79638;SDS011;69114;49.108;8.280;2023-05-29T00:59:42;11.10;;;5.68;;
79638;SDS011;69114;49.108;8.280;2023-05-29T01:02:10;10.23;;;5.28;;
79638;SDS011;69114;49.108;8.280;2023-05-29T01:04:35;7.43;;;4.97;;
79638;SDS011;69114;49.108;8.280;2023-05-29T01:07:01;8.88;;;4.80;;
79638;SDS011;69114;49.108;8.280;2023-05-29T01:09:29;10.88;;;4.88;;
79638;SDS011;69114;49.108;8.280;2023-05-29T01:20:33;7.00;;;4.65;;
79638;SDS011;69114;49.108;8.280;2023-05-29T01:28:44;5.47;;;3.67;;
79638;SDS011;69114;49.108;8.280;2023-05-29T01:31:12;7.00;;;4.15;;
79638;SDS011;69114;49.108;8.280;2023-05-29T01:33:42;7.03;;;4.40;;
79638;SDS011;69114;49.108;8.280;2023-05-29T01:36:08;8.00;;;4.55;;
79638;SDS011;69114;49.108;8.280;2023-05-29T01:38:34;7.65;;;4.03;;
79638;SDS011;69114;49.108;8.280;2023-05-29T01:41:00;7.93;;;4.40;;
79638;SDS011;69114;49.108;8.280;2023-05-29T01:43:26;7.82;;;4.22;;
79638;SDS011;69114;49.108;8.280;2023-05-29T01:45:53;6.72;;;4.53;;
79638;SDS011;69114;49.108;8.280;2023-05-29T01:48:18;8.20;;;4.40;;
79638;SDS011;69114;49.108;8.280;2023-05-29T01:50:44;6.30;;;4.32;;
79638;SDS011;69114;49.108;8.280;2023-05-29T01:53:11;7.93;;;4.38;;
79638;SDS011;69114;49.108;8.280;2023-05-29T01:55:36;6.72;;;3.75;;
79638;SDS011;69114;49.108;8.280;2023-05-29T01:58:02;13.63;;;4.10;;
79638;SDS011;69114;49.108;8.280;2023-05-29T02:00:27;7.80;;;4.10;;
79638;SDS011;69114;49.108;8.280;2023-05-29T02:02:54;6.15;;;4.07;;
79638;SDS011;69114;49.108;8.280;2023-05-29T02:05:20;7.13;;;3.58;;
79638;SDS011;69114;49.108;8.280;2023-05-29T02:07:46;7.57;;;3.83;;
79638;SDS011;69114;49.108;8.280;2023-05-29T02:10:11;6.55;;;3.90;;
79638;SDS011;69114;49.108;8.280;2023-05-29T02:12:37;5.03;;;3.20;;
79638;SDS011;69114;49.108;8.280;2023-05-29T02:15:02;6.63;;;3.50;;
79638;SDS011;69114;49.108;8.280;2023-05-29T02:17:28;8.52;;;3.72;;
79638;SDS011;69114;49.108;8.280;2023-05-29T02:19:53;7.90;;;3.92;;
79638;SDS011;69114;49.108;8.280;2023-05-29T02:22:18;9.27;;;4.07;;
79638;SDS011;69114;49.108;8.280;2023-05-29T02:24:44;7.22;;;3.42;;
79638;SDS011;69114;49.108;8.280;2023-05-29T02:27:18;5.22;;;3.55;;
79638;SDS011;69114;49.108;8.280;2023-05-29T02:29:45;7.95;;;3.78;;
79638;SDS011;69114;49.108;8.280;2023-05-29T02:32:10;6.07;;;3.63;;
79638;SDS011;69114;49.108;8.280;2023-05-29T02:34:35;6.18;;;3.70;;
79638;SDS011;69114;49.108;8.280;2023-05-29T02:37:01;9.93;;;4.55;;
79638;SDS011;69114;49.108;8.280;2023-05-29T02:39:26;7.50;;;3.85;;
79638;SDS011;69114;49.108;8.280;2023-05-29T02:41:51;7.20;;;3.75;;
79638;SDS011;69114;49.108;8.280;2023-05-29T02:44:17;6.10;;;3.63;;
79638;SDS011;69114;49.108;8.280;2023-05-29T02:46:42;5.47;;;3.50;;
79638;SDS011;69114;49.108;8.280;2023-05-29T02:49:07;7.07;;;3.70;;
79638;SDS011;69114;49.108;8.280;2023-05-29T02:51:33;6.72;;;3.60;;
79638;SDS011;69114;49.108;8.280;2023-05-29T02:53:58;7.07;;;3.95;;
79638;SDS011;69114;49.108;8.280;2023-05-29T02:56:23;6.97;;;3.55;;
79638;SDS011;69114;49.108;8.280;2023-05-29T02:58:49;7.35;;;3.40;;
79638;SDS011;69114;49.108;8.280;2023-05-29T03:01:15;6.72;;;3.45;;
79638;SDS011;69114;49.108;8.280;2023-05-29T03:03:41;7.05;;;3.60;;
79638;SDS011;69114;49.108;8.280;2023-05-29T03:06:06;5.93;;;3.35;;
79638;SDS011;69114;49.108;8.280;2023-05-29T03:08:33;5.07;;;3.30;;
79638;SDS011;69114;49.108;8.280;2023-05-29T03:10:59;7.07;;;4.20;;
79638;SDS011;69114;49.108;8.280;2023-05-29T03:13:24;7.73;;;3.80;;
79638;SDS011;69114;49.108;8.280;2023-05-29T03:15:50;8.93;;;4.07;;
79638;SDS011;69114;49.108;8.280;2023-05-29T03:18:16;7.20;;;3.78;;
79638;SDS011;69114;49.108;8.280;2023-05-29T03:20:41;8.32;;;3.83;;
79638;SDS011;69114;49.108;8.280;2023-05-29T03:23:09;7.30;;;3.88;;
79638;SDS011;69114;49.108;8.280;2023-05-29T03:25:35;5.85;;;3.45;;
79638;SDS011;69114;49.108;8.280;2023-05-29T03:28:00;5.65;;;3.53;;
79638;SDS011;69114;49.108;8.280;2023-05-29T03:30:26;7.07;;;4.05;;
79638;SDS011;69114;49.108;8.280;2023-05-29T03:32:51;9.93;;;3.90;;
79638;SDS011;69114;49.108;8.280;2023-05-29T03:35:16;7.03;;;3.65;;
79638;SDS011;69114;49.108;8.280;2023-05-29T03:37:42;8.80;;;3.80;;
79638;SDS011;69114;49.108;8.280;2023-05-29T03:40:07;6.88;;;3.60;;
79638;SDS011;69114;49.108;8.280;2023-05-29T03:42:34;8.00;;;3.80;;
79638;SDS011;69114;49.108;8.280;2023-05-29T03:44:59;5.30;;;3.20;;
79638;SDS011;69114;49.108;8.280;2023-05-29T03:47:25;8.18;;;3.88;;
79638;SDS011;69114;49.108;8.280;2023-05-29T03:49:50;6.65;;;3.95;;
79638;SDS011;69114;49.108;8.280;2023-05-29T03:52:16;5.15;;;3.80;;
79638;SDS011;69114;49.108;8.280;2023-05-29T03:54:41;7.68;;;3.90;;
79638;SDS011;69114;49.108;8.280;2023-05-29T03:57:07;6.65;;;3.90;;
79638;SDS011;69114;49.108;8.280;2023-05-29T03:59:33;6.68;;;3.45;;
79638;SDS011;69114;49.108;8.280;2023-05-29T04:01:59;6.80;;;4.10;;
79638;SDS011;69114;49.108;8.280;2023-05-29T04:04:24;5.72;;;3.55;;
79638;SDS011;69114;49.108;8.280;2023-05-29T04:06:50;6.85;;;3.83;;
79638;SDS011;69114;49.108;8.280;2023-05-29T04:09:15;7.97;;;4.23;;
79638;SDS011;69114;49.108;8.280;2023-05-29T04:11:41;7.40;;;3.70;;
79638;SDS011;69114;49.108;8.280;2023-05-29T04:14:06;5.25;;;3.70;;
79638;SDS011;69114;49.108;8.280;2023-05-29T04:16:32;9.77;;;4.10;;
79638;SDS011;69114;49.108;8.280;2023-05-29T04:18:57;7.80;;;3.80;;
79638;SDS011;69114;49.108;8.280;2023-05-29T04:21:23;8.93;;;3.90;;
79638;SDS011;69114;49.108;8.280;2023-05-29T04:23:48;7.78;;;3.95;;
79638;SDS011;69114;49.108;8.280;2023-05-29T04:26:13;7.68;;;3.90;;
79638;SDS011;69114;49.108;8.280;2023-05-29T04:28:39;7.82;;;3.85;;
79638;SDS011;69114;49.108;8.280;2023-05-29T04:31:04;8.77;;;3.97;;
79638;SDS011;69114;49.108;8.280;2023-05-29T04:33:30;9.10;;;3.90;;
79638;SDS011;69114;49.108;8.280;2023-05-29T04:35:57;7.55;;;3.47;;
79638;SDS011;69114;49.108;8.280;2023-05-29T04:38:26;6.85;;;3.78;;
79638;SDS011;69114;49.108;8.280;2023-05-29T04:40:51;8.35;;;4.13;;
79638;SDS011;69114;49.108;8.280;2023-05-29T04:43:17;10.20;;;4.22;;
79638;SDS011;69114;49.108;8.280;2023-05-29T04:45:43;7.22;;;3.55;;
79638;SDS011;69114;49.108;8.280;2023-05-29T04:48:08;9.70;;;4.53;;
79638;SDS011;69114;49.108;8.280;2023-05-29T04:50:34;8.05;;;4.05;;
79638;SDS011;69114;49.108;8.280;2023-05-29T04:53:01;8.27;;;3.90;;
79638;SDS011;69114;49.108;8.280;2023-05-29T04:55:27;6.38;;;3.83;;
79638;SDS011;69114;49.108;8.280;2023-05-29T04:57:52;7.53;;;4.03;;
79638;SDS011;69114;49.108;8.280;2023-05-29T05:00:18;6.65;;;4.00;;
79638;SDS011;69114;49.108;8.280;2023-05-29T05:02:44;9.98;;;3.92;;
79638;SDS011;69114;49.108;8.280;2023-05-29T05:05:10;6.50;;;4.13;;
79638;SDS011;69114;49.108;8.280;2023-05-29T05:07:36;6.90;;;3.47;;
79638;SDS011;69114;49.108;8.280;2023-05-29T05:10:05;5.40;;;3.38;;
79638;SDS011;69114;49.108;8.280;2023-05-29T05:12:31;7.30;;;3.92;;
79638;SDS011;69114;49.108;8.280;2023-05-29T05:14:56;6.47;;;3.35;;
79638;SDS011;69114;49.108;8.280;2023-05-29T05:17:22;9.55;;;4.03;;
79638;SDS011;69114;49.108;8.280;2023-05-29T05:19:47;5.57;;;3.42;;
79638;SDS011;69114;49.108;8.280;2023-05-29T05:22:17;12.48;;;3.70;;
79638;SDS011;69114;49.108;8.280;2023-05-29T05:24:42;7.80;;;3.80;;
79638;SDS011;69114;49.108;8.280;2023-05-29T05:27:08;7.90;;;3.42;;
79638;SDS011;69114;49.108;8.280;2023-05-29T05:29:33;11.48;;;4.05;;
79638;SDS011;69114;49.108;8.280;2023-05-29T05:31:58;6.80;;;4.30;;
79638;SDS011;69114;49.108;8.280;2023-05-29T05:34:24;9.48;;;4.47;;
79638;SDS011;69114;49.108;8.280;2023-05-29T05:36:49;6.97;;;4.03;;
79638;SDS011;69114;49.108;8.280;2023-05-29T05:39:15;6.18;;;3.92;;
79638;SDS011;69114;49.108;8.280;2023-05-29T05:41:40;5.95;;;3.63;;
79638;SDS011;69114;49.108;8.280;2023-05-29T05:44:06;7.75;;;3.97;;
79638;SDS011;69114;49.108;8.280;2023-05-29T05:46:31;9.68;;;4.43;;
79638;SDS011;69114;49.108;8.280;2023-05-29T05:48:56;6.15;;;3.65;;
79638;SDS011;69114;49.108;8.280;2023-05-29T05:51:22;7.82;;;4.18;;
79638;SDS011;69114;49.108;8.280;2023-05-29T05:53:57;6.50;;;3.92;;
79638;SDS011;69114;49.108;8.280;2023-05-29T05:56:22;6.27;;;3.50;;
79638;SDS011;69114;49.108;8.280;2023-05-29T05:58:48;9.70;;;3.50;;
79638;SDS011;69114;49.108;8.280;2023-05-29T06:01:15;6.95;;;3.60;;
79638;SDS011;69114;49.108;8.280;2023-05-29T06:03:40;8.18;;;3.80;;
79638;SDS011;69114;49.108;8.280;2023-05-29T06:06:06;8.70;;;3.80;;
79638;SDS011;69114;49.108;8.280;2023-05-29T06:08:32;7.30;;;3.58;;
79638;SDS011;69114;49.108;8.280;2023-05-29T06:10:58;7.50;;;3.80;;
79638;SDS011;69114;49.108;8.280;2023-05-29T06:13:23;5.87;;;3.13;;
79638;SDS011;69114;49.108;8.280;2023-05-29T06:15:48;7.25;;;3.30;;
79638;SDS011;69114;49.108;8.280;2023-05-29T06:18:14;7.35;;;3.88;;
79638;SDS011;69114;49.108;8.280;2023-05-29T06:20:39;8.15;;;4.00;;
79638;SDS011;69114;49.108;8.280;2023-05-29T06:23:05;7.00;;;3.60;;
79638;SDS011;69114;49.108;8.280;2023-05-29T06:25:31;6.47;;;4.13;;
79638;SDS011;69114;49.108;8.280;2023-05-29T06:27:59;5.25;;;3.40;;
79638;SDS011;69114;49.108;8.280;2023-05-29T06:30:25;10.73;;;3.78;;
79638;SDS011;69114;49.108;8.280;2023-05-29T06:32:51;6.88;;;4.25;;
79638;SDS011;69114;49.108;8.280;2023-05-29T06:35:16;8.27;;;3.90;;
79638;SDS011;69114;49.108;8.280;2023-05-29T06:37:41;7.13;;;3.92;;
79638;SDS011;69114;49.108;8.280;2023-05-29T06:40:07;7.03;;;3.60;;
79638;SDS011;69114;49.108;8.280;2023-05-29T06:42:33;7.95;;;4.10;;
79638;SDS011;69114;49.108;8.280;2023-05-29T06:44:58;7.70;;;4.20;;
79638;SDS011;69114;49.108;8.280;2023-05-29T06:47:23;6.80;;;3.80;;
79638;SDS011;69114;49.108;8.280;2023-05-29T06:49:49;6.97;;;3.78;;
79638;SDS011;69114;49.108;8.280;2023-05-29T06:52:14;7.90;;;4.85;;
79638;SDS011;69114;49.108;8.280;2023-05-29T06:54:39;6.55;;;3.45;;
79638;SDS011;69114;49.108;8.280;2023-05-29T06:57:06;5.82;;;3.75;;
79638;SDS011;69114;49.108;8.280;2023-05-29T06:59:31;9.48;;;4.00;;
79638;SDS011;69114;49.108;8.280;2023-05-29T07:01:57;5.47;;;3.95;;
79638;SDS011;69114;49.108;8.280;2023-05-29T07:04:22;6.13;;;3.90;;
79638;SDS011;69114;49.108;8.280;2023-05-29T07:06:48;8.02;;;3.63;;
79638;SDS011;69114;49.108;8.280;2023-05-29T07:09:13;5.30;;;3.50;;
79638;SDS011;69114;49.108;8.280;2023-05-29T07:11:38;5.35;;;3.38;;
79638;SDS011;69114;49.108;8.280;2023-05-29T07:14:04;7.25;;;3.80;;
79638;SDS011;69114;49.108;8.280;2023-05-29T07:16:29;9.30;;;3.83;;
79638;SDS011;69114;49.108;8.280;2023-05-29T07:18:55;6.18;;;3.80;;
79638;SDS011;69114;49.108;8.280;2023-05-29T07:21:20;9.80;;;3.90;;
79638;SDS011;69114;49.108;8.280;2023-05-29T07:23:45;6.70;;;3.70;;
79638;SDS011;69114;49.108;8.280;2023-05-29T07:26:11;6.80;;;3.72;;
79638;SDS011;69114;49.108;8.280;2023-05-29T07:28:36;8.00;;;3.95;;
79638;SDS011;69114;49.108;8.280;2023-05-29T07:31:01;5.82;;;3.83;;
79638;SDS011;69114;49.108;8.280;2023-05-29T07:33:27;7.63;;;3.85;;
79638;SDS011;69114;49.108;8.280;2023-05-29T07:35:52;7.07;;;3.75;;
79638;SDS011;69114;49.108;8.280;2023-05-29T07:38:17;6.50;;;3.35;;
79638;SDS011;69114;49.108;8.280;2023-05-29T07:40:43;6.05;;;3.47;;
79638;SDS011;69114;49.108;8.280;2023-05-29T07:43:09;5.32;;;3.33;;
79638;SDS011;69114;49.108;8.280;2023-05-29T07:45:34;5.93;;;3.58;;
79638;SDS011;69114;49.108;8.280;2023-05-29T07:48:00;9.15;;;3.50;;
79638;SDS011;69114;49.108;8.280;2023-05-29T07:50:25;5.78;;;4.03;;
79638;SDS011;69114;49.108;8.280;2023-05-29T07:52:51;7.10;;;4.40;;
79638;SDS011;69114;49.108;8.280;2023-05-29T07:55:17;8.52;;;3.65;;
79638;SDS011;69114;49.108;8.280;2023-05-29T07:57:42;8.68;;;4.35;;
79638;SDS011;69114;49.108;8.280;2023-05-29T08:00:08;5.53;;;3.60;;
79638;SDS011;69114;49.108;8.280;2023-05-29T08:02:34;9.38;;;4.57;;
79638;SDS011;69114;49.108;8.280;2023-05-29T08:05:09;7.47;;;4.20;;
79638;SDS011;69114;49.108;8.280;2023-05-29T08:07:36;11.00;;;4.13;;
79638;SDS011;69114;49.108;8.280;2023-05-29T08:10:01;7.72;;;4.28;;
79638;SDS011;69114;49.108;8.280;2023-05-29T08:12:27;7.18;;;4.13;;
79638;SDS011;69114;49.108;8.280;2023-05-29T08:14:52;8.25;;;3.33;;
79638;SDS011;69114;49.108;8.280;2023-05-29T08:17:18;6.68;;;4.38;;
79638;SDS011;69114;49.108;8.280;2023-05-29T08:19:43;9.90;;;4.00;;
79638;SDS011;69114;49.108;8.280;2023-05-29T08:22:11;8.00;;;4.10;;
79638;SDS011;69114;49.108;8.280;2023-05-29T08:24:37;7.50;;;4.20;;
79638;SDS011;69114;49.108;8.280;2023-05-29T08:27:03;6.85;;;3.83;;
79638;SDS011;69114;49.108;8.280;2023-05-29T08:29:34;7.82;;;3.80;;
79638;SDS011;69114;49.108;8.280;2023-05-29T08:32:01;6.63;;;3.83;;
79638;SDS011;69114;49.108;8.280;2023-05-29T08:34:27;6.65;;;3.47;;
79638;SDS011;69114;49.108;8.280;2023-05-29T08:36:53;5.38;;;3.90;;
79638;SDS011;69114;49.108;8.280;2023-05-29T08:39:20;9.05;;;3.80;;
79638;SDS011;69114;49.108;8.280;2023-05-29T08:41:55;8.50;;;3.80;;
79638;SDS011;69114;49.108;8.280;2023-05-29T08:44:26;5.90;;;3.67;;
79638;SDS011;69114;49.108;8.280;2023-05-29T08:46:56;8.00;;;4.68;;
79638;SDS011;69114;49.108;8.280;2023-05-29T08:49:26;5.97;;;3.67;;
79638;SDS011;69114;49.108;8.280;2023-05-29T08:51:57;5.53;;;3.55;;
79638;SDS011;69114;49.108;8.280;2023-05-29T08:54:31;7.75;;;4.30;;
79638;SDS011;69114;49.108;8.280;2023-05-29T08:56:57;8.00;;;3.90;;
79638;SDS011;69114;49.108;8.280;2023-05-29T08:59:23;8.60;;;3.80;;
79638;SDS011;69114;49.108;8.280;2023-05-29T09:01:50;6.25;;;3.80;;
79638;SDS011;69114;49.108;8.280;2023-05-29T09:04:16;6.18;;;4.20;;
79638;SDS011;69114;49.108;8.280;2023-05-29T09:06:41;8.85;;;3.90;;
79638;SDS011;69114;49.108;8.280;2023-05-29T09:09:08;7.07;;;4.10;;
79638;SDS011;69114;49.108;8.280;2023-05-29T09:11:34;5.75;;;3.78;;
79638;SDS011;69114;49.108;8.280;2023-05-29T09:14:00;6.88;;;3.97;;
79638;SDS011;69114;49.108;8.280;2023-05-29T09:16:27;5.07;;;3.65;;
79638;SDS011;69114;49.108;8.280;2023-05-29T09:18:52;6.35;;;3.80;;
79638;SDS011;69114;49.108;8.280;2023-05-29T09:21:29;6.47;;;3.47;;
79638;SDS011;69114;49.108;8.280;2023-05-29T09:24:07;5.32;;;3.78;;
79638;SDS011;69114;49.108;8.280;2023-05-29T09:26:32;6.78;;;3.95;;
79638;SDS011;69114;49.108;8.280;2023-05-29T09:28:58;4.80;;;3.35;;
79638;SDS011;69114;49.108;8.280;2023-05-29T09:31:23;6.45;;;3.70;;
79638;SDS011;69114;49.108;8.280;2023-05-29T09:33:49;5.28;;;3.67;;
79638;SDS011;69114;49.108;8.280;2023-05-29T09:36:21;7.68;;;3.95;;
79638;SDS011;69114;49.108;8.280;2023-05-29T09:38:47;7.28;;;4.05;;
79638;SDS011;69114;49.108;8.280;2023-05-29T09:41:22;6.80;;;3.88;;
79638;SDS011;69114;49.108;8.280;2023-05-29T09:43:49;5.47;;;3.30;;
79638;SDS011;69114;49.108;8.280;2023-05-29T09:46:18;7.25;;;3.92;;
79638;SDS011;69114;49.108;8.280;2023-05-29T09:48:46;9.25;;;4.40;;
79638;SDS011;69114;49.108;8.280;2023-05-29T09:51:21;8.23;;;3.50;;
79638;SDS011;69114;49.108;8.280;2023-05-29T09:53:48;6.80;;;3.90;;
79638;SDS011;69114;49.108;8.280;2023-05-29T09:56:13;9.60;;;4.22;;
79638;SDS011;69114;49.108;8.280;2023-05-29T09:58:42;5.68;;;3.90;;
79638;SDS011;69114;49.108;8.280;2023-05-29T10:01:11;6.13;;;3.92;;
79638;SDS011;69114;49.108;8.280;2023-05-29T10:03:38;6.22;;;3.58;;
79638;SDS011;69114;49.108;8.280;2023-05-29T10:06:03;6.43;;;3.85;;
79638;SDS011;69114;49.108;8.280;2023-05-29T10:08:31;7.00;;;3.95;;
79638;SDS011;69114;49.108;8.280;2023-05-29T10:11:02;5.05;;;3.30;;
79638;SDS011;69114;49.108;8.280;2023-05-29T10:13:30;6.20;;;4.07;;
79638;SDS011;69114;49.108;8.280;2023-05-29T10:15:59;5.05;;;3.67;;
79638;SDS011;69114;49.108;8.280;2023-05-29T10:21:03;7.45;;;3.83;;
79638;SDS011;69114;49.108;8.280;2023-05-29T10:23:32;6.72;;;3.92;;
79638;SDS011;69114;49.108;8.280;2023-05-29T10:26:04;5.90;;;3.80;;
79638;SDS011;69114;49.108;8.280;2023-05-29T10:28:36;5.20;;;3.63;;
79638;SDS011;69114;49.108;8.280;2023-05-29T10:31:09;6.55;;;3.78;;
79638;SDS011;69114;49.108;8.280;2023-05-29T10:36:14;4.75;;;3.28;;
79638;SDS011;69114;49.108;8.280;2023-05-29T10:38:46;5.47;;;3.10;;
79638;SDS011;69114;49.108;8.280;2023-05-29T10:43:51;6.47;;;3.83;;
79638;SDS011;69114;49.108;8.280;2023-05-29T10:46:18;6.50;;;3.88;;
79638;SDS011;69114;49.108;8.280;2023-05-29T10:48:43;8.10;;;3.70;;
79638;SDS011;69114;49.108;8.280;2023-05-29T10:51:23;8.90;;;3.85;;
79638;SDS011;69114;49.108;8.280;2023-05-29T10:53:50;5.07;;;3.70;;
79638;SDS011;69114;49.108;8.280;2023-05-29T10:56:16;6.78;;;3.95;;
79638;SDS011;69114;49.108;8.280;2023-05-29T10:58:49;6.18;;;4.35;;
79638;SDS011;69114;49.108;8.280;2023-05-29T11:01:20;7.60;;;4.63;;
79638;SDS011;69114;49.108;8.280;2023-05-29T11:03:46;9.48;;;5.18;;
79638;SDS011;69114;49.108;8.280;2023-05-29T11:06:19;9.88;;;5.13;;
79638;SDS011;69114;49.108;8.280;2023-05-29T11:08:47;11.73;;;7.93;;
79638;SDS011;69114;49.108;8.280;2023-05-29T11:13:53;7.53;;;3.97;;
79638;SDS011;69114;49.108;8.280;2023-05-29T11:16:35;6.80;;;3.85;;
79638;SDS011;69114;49.108;8.280;2023-05-29T11:19:04;6.55;;;3.88;;
79638;SDS011;69114;49.108;8.280;2023-05-29T11:21:34;5.60;;;3.38;;
79638;SDS011;69114;49.108;8.280;2023-05-29T11:24:22;7.30;;;4.22;;
79638;SDS011;69114;49.108;8.280;2023-05-29T11:26:50;6.55;;;3.72;;
79638;SDS011;69114;49.108;8.280;2023-05-29T11:29:19;9.25;;;5.85;;
79638;SDS011;69114;49.108;8.280;2023-05-29T11:34:14;5.97;;;3.55;;
79638;SDS011;69114;49.108;8.280;2023-05-29T11:36:40;6.22;;;3.60;;
79638;SDS011;69114;49.108;8.280;2023-05-29T11:39:06;9.38;;;3.50;;
79638;SDS011;69114;49.108;8.280;2023-05-29T11:41:31;3.95;;;3.30;;
79638;SDS011;69114;49.108;8.280;2023-05-29T11:43:57;6.70;;;3.90;;
79638;SDS011;69114;49.108;8.280;2023-05-29T11:46:23;8.32;;;3.22;;
79638;SDS011;69114;49.108;8.280;2023-05-29T11:48:51;5.53;;;3.65;;
79638;SDS011;69114;49.108;8.280;2023-05-29T11:51:17;6.40;;;3.33;;
79638;SDS011;69114;49.108;8.280;2023-05-29T11:53:42;4.97;;;3.70;;
79638;SDS011;69114;49.108;8.280;2023-05-29T11:56:11;4.65;;;3.20;;
79638;SDS011;69114;49.108;8.280;2023-05-29T11:58:37;6.45;;;3.47;;
79638;SDS011;69114;49.108;8.280;2023-05-29T12:01:04;7.45;;;3.53;;
79638;SDS011;69114;49.108;8.280;2023-05-29T12:03:31;4.90;;;3.30;;
79638;SDS011;69114;49.108;8.280;2023-05-29T12:06:02;5.53;;;3.80;;
79638;SDS011;69114;49.108;8.280;2023-05-29T12:08:28;5.50;;;3.28;;
79638;SDS011;69114;49.108;8.280;2023-05-29T12:10:53;7.90;;;3.83;;
79638;SDS011;69114;49.108;8.280;2023-05-29T12:13:19;5.00;;;3.67;;
79638;SDS011;69114;49.108;8.280;2023-05-29T12:15:45;5.07;;;3.60;;
79638;SDS011;69114;49.108;8.280;2023-05-29T12:18:11;4.68;;;3.50;;
79638;SDS011;69114;49.108;8.280;2023-05-29T12:20:37;5.32;;;3.67;;
79638;SDS011;69114;49.108;8.280;2023-05-29T12:23:02;5.75;;;4.00;;
79638;SDS011;69114;49.108;8.280;2023-05-29T12:25:28;7.07;;;3.80;;
79638;SDS011;69114;49.108;8.280;2023-05-29T12:27:57;5.88;;;3.60;;
79638;SDS011;69114;49.108;8.280;2023-05-29T12:30:23;6.07;;;3.70;;
79638;SDS011;69114;49.108;8.280;2023-05-29T12:32:49;6.97;;;3.58;;
79638;SDS011;69114;49.108;8.280;2023-05-29T12:35:22;4.35;;;3.20;;
79638;SDS011;69114;49.108;8.280;2023-05-29T12:37:56;6.97;;;3.45;;
79638;SDS011;69114;49.108;8.280;2023-05-29T12:40:26;5.60;;;3.50;;
79638;SDS011;69114;49.108;8.280;2023-05-29T12:42:54;5.75;;;3.63;;
79638;SDS011;69114;49.108;8.280;2023-05-29T12:45:21;5.38;;;3.40;;
79638;SDS011;69114;49.108;8.280;2023-05-29T12:47:50;4.95;;;3.90;;
79638;SDS011;69114;49.108;8.280;2023-05-29T12:53:02;6.28;;;3.80;;
79638;SDS011;69114;49.108;8.280;2023-05-29T12:55:33;5.80;;;3.70;;
79638;SDS011;69114;49.108;8.280;2023-05-29T12:58:13;6.68;;;3.67;;
79638;SDS011;69114;49.108;8.280;2023-05-29T13:00:40;6.10;;;3.83;;
79638;SDS011;69114;49.108;8.280;2023-05-29T13:03:08;5.30;;;3.80;;
79638;SDS011;69114;49.108;8.280;2023-05-29T13:05:34;4.65;;;3.60;;
79638;SDS011;69114;49.108;8.280;2023-05-29T13:08:00;5.38;;;3.35;;
79638;SDS011;69114;49.108;8.280;2023-05-29T13:10:26;5.18;;;3.60;;
79638;SDS011;69114;49.108;8.280;2023-05-29T13:12:55;4.68;;;3.38;;
79638;SDS011;69114;49.108;8.280;2023-05-29T13:15:23;4.43;;;3.72;;
79638;SDS011;69114;49.108;8.280;2023-05-29T13:17:49;4.72;;;3.60;;
79638;SDS011;69114;49.108;8.280;2023-05-29T13:20:15;6.45;;;3.40;;
79638;SDS011;69114;49.108;8.280;2023-05-29T13:22:41;7.32;;;3.72;;
79638;SDS011;69114;49.108;8.280;2023-05-29T13:25:08;5.00;;;3.13;;
79638;SDS011;69114;49.108;8.280;2023-05-29T13:27:35;5.00;;;3.78;;
79638;SDS011;69114;49.108;8.280;2023-05-29T13:30:10;5.32;;;3.47;;
79638;SDS011;69114;49.108;8.280;2023-05-29T13:32:37;5.20;;;3.40;;
79638;SDS011;69114;49.108;8.280;2023-05-29T13:35:03;5.70;;;3.60;;
79638;SDS011;69114;49.108;8.280;2023-05-29T13:37:28;10.65;;;3.65;;
79638;SDS011;69114;49.108;8.280;2023-05-29T13:39:54;4.72;;;3.47;;
79638;SDS011;69114;49.108;8.280;2023-05-29T13:42:20;5.55;;;3.40;;
79638;SDS011;69114;49.108;8.280;2023-05-29T13:44:46;4.75;;;3.30;;
79638;SDS011;69114;49.108;8.280;2023-05-29T13:47:12;4.38;;;3.40;;
79638;SDS011;69114;49.108;8.280;2023-05-29T13:49:38;3.95;;;2.83;;
79638;SDS011;69114;49.108;8.280;2023-05-29T13:52:03;4.70;;;3.40;;
79638;SDS011;69114;49.108;8.280;2023-05-29T13:54:29;5.22;;;3.47;;
79638;SDS011;69114;49.108;8.280;2023-05-29T13:56:56;5.68;;;3.38;;
79638;SDS011;69114;49.108;8.280;2023-05-29T13:59:23;4.47;;;3.22;;
79638;SDS011;69114;49.108;8.280;2023-05-29T14:01:48;5.97;;;3.08;;
79638;SDS011;69114;49.108;8.280;2023-05-29T14:04:14;6.03;;;3.00;;
79638;SDS011;69114;49.108;8.280;2023-05-29T14:06:39;4.20;;;2.80;;
79638;SDS011;69114;49.108;8.280;2023-05-29T14:09:05;4.18;;;3.00;;
79638;SDS011;69114;49.108;8.280;2023-05-29T14:11:34;3.88;;;3.05;;
79638;SDS011;69114;49.108;8.280;2023-05-29T14:14:01;4.18;;;3.30;;
79638;SDS011;69114;49.108;8.280;2023-05-29T14:16:27;4.57;;;3.33;;
79638;SDS011;69114;49.108;8.280;2023-05-29T14:18:53;4.38;;;3.15;;
79638;SDS011;69114;49.108;8.280;2023-05-29T14:21:18;5.07;;;2.97;;
79638;SDS011;69114;49.108;8.280;2023-05-29T14:23:45;5.55;;;3.20;;
79638;SDS011;69114;49.108;8.280;2023-05-29T14:26:11;10.82;;;3.42;;
79638;SDS011;69114;49.108;8.280;2023-05-29T14:28:36;5.40;;;2.87;;
79638;SDS011;69114;49.108;8.280;2023-05-29T14:31:02;5.00;;;3.20;;
79638;SDS011;69114;49.108;8.280;2023-05-29T14:33:27;4.70;;;3.40;;
79638;SDS011;69114;49.108;8.280;2023-05-29T14:35:52;3.97;;;3.08;;
79638;SDS011;69114;49.108;8.280;2023-05-29T14:38:18;5.57;;;3.40;;
79638;SDS011;69114;49.108;8.280;2023-05-29T14:40:43;4.90;;;3.60;;
79638;SDS011;69114;49.108;8.280;2023-05-29T14:43:08;4.85;;;2.72;;
79638;SDS011;69114;49.108;8.280;2023-05-29T14:45:34;5.15;;;3.47;;
79638;SDS011;69114;49.108;8.280;2023-05-29T14:47:59;6.05;;;3.28;;
79638;SDS011;69114;49.108;8.280;2023-05-29T14:50:26;3.83;;;2.97;;
79638;SDS011;69114;49.108;8.280;2023-05-29T14:52:51;5.65;;;3.55;;
79638;SDS011;69114;49.108;8.280;2023-05-29T14:55:16;5.50;;;3.10;;
79638;SDS011;69114;49.108;8.280;2023-05-29T14:57:42;8.05;;;3.42;;
79638;SDS011;69114;49.108;8.280;2023-05-29T15:00:07;4.10;;;2.90;;
79638;SDS011;69114;49.108;8.280;2023-05-29T15:02:33;4.28;;;2.85;;
79638;SDS011;69114;49.108;8.280;2023-05-29T15:04:59;4.47;;;3.00;;
79638;SDS011;69114;49.108;8.280;2023-05-29T15:07:27;5.88;;;3.40;;
79638;SDS011;69114;49.108;8.280;2023-05-29T15:09:54;4.30;;;3.00;;
79638;SDS011;69114;49.108;8.280;2023-05-29T15:12:20;4.43;;;2.95;;
79638;SDS011;69114;49.108;8.280;2023-05-29T15:14:45;3.80;;;3.17;;